Terminal Aerodrome Forecast
Issued by NWS

Home | Current Version | Previous Version | Text Only | Print | Product List | Glossary On
Versions: 1 2 3 4 5 6 7 8 9 10 11 12 13 14 15 16 17 18 19 20 21 22 23 24
000
FTUS43 KDLH 242000 AAA
TAFHIB
TAF AMD
KHIB 242003Z 2420/2518 12010KT 3/4SM -SN OVC005
      TEMPO 2420/2424 1SM -SN BR OVC009
     FM250000 10007KT 2SM -SNRA BR OVC007
     FM250300 VRB03KT 1 1/2SM -SNDZ BR OVC005
     FM250900 11003KT 2SM BR OVC003
     FM251200 33012KT P6SM VCSH OVC030=

USA.gov is the U.S. government's official web portal to all federal, state and local government web resources and services.